sensor_id;sensor_type;location;lat;lon;timestamp;temperature;humidity
17066;DHT22;23120;52.336;21.182;2022-10-16T00:01:05;13.30;90.70
17066;DHT22;23120;52.336;21.182;2022-10-16T00:03:33;13.40;90.50
17066;DHT22;23120;52.336;21.182;2022-10-16T00:06:00;13.40;90.60
17066;DHT22;23120;52.336;21.182;2022-10-16T00:08:27;13.40;90.50
17066;DHT22;23120;52.336;21.182;2022-10-16T00:11:00;13.40;90.40
17066;DHT22;23120;52.336;21.182;2022-10-16T00:13:27;13.40;90.40
17066;DHT22;23120;52.336;21.182;2022-10-16T00:15:55;13.40;90.50
17066;DHT22;23120;52.336;21.182;2022-10-16T00:18:22;13.40;90.40
17066;DHT22;23120;52.336;21.182;2022-10-16T00:20:49;13.40;90.30
17066;DHT22;23120;52.336;21.182;2022-10-16T00:23:16;13.40;90.40
17066;DHT22;23120;52.336;21.182;2022-10-16T00:25:43;13.40;90.40
17066;DHT22;23120;52.336;21.182;2022-10-16T00:28:11;13.40;90.30
17066;DHT22;23120;52.336;21.182;2022-10-16T00:30:39;13.40;90.30
17066;DHT22;23120;52.336;21.182;2022-10-16T00:33:06;13.40;90.20
17066;DHT22;23120;52.336;21.182;2022-10-16T00:35:32;13.40;90.20
17066;DHT22;23120;52.336;21.182;2022-10-16T00:37:59;13.40;90.20
17066;DHT22;23120;52.336;21.182;2022-10-16T00:40:26;13.40;90.20
17066;DHT22;23120;52.336;21.182;2022-10-16T00:42:53;13.40;90.20
17066;DHT22;23120;52.336;21.182;2022-10-16T00:45:21;13.40;90.20
17066;DHT22;23120;52.336;21.182;2022-10-16T00:47:49;13.40;90.40
17066;DHT22;23120;52.336;21.182;2022-10-16T00:50:22;13.40;90.30
17066;DHT22;23120;52.336;21.182;2022-10-16T00:52:51;13.40;90.30
17066;DHT22;23120;52.336;21.182;2022-10-16T00:55:19;13.40;90.20
17066;DHT22;23120;52.336;21.182;2022-10-16T00:57:46;13.40;90.50
17066;DHT22;23120;52.336;21.182;2022-10-16T01:00:18;13.40;90.50
17066;DHT22;23120;52.336;21.182;2022-10-16T01:02:52;13.40;90.50
17066;DHT22;23120;52.336;21.182;2022-10-16T01:05:19;13.40;90.70
17066;DHT22;23120;52.336;21.182;2022-10-16T01:07:56;13.40;90.70
17066;DHT22;23120;52.336;21.182;2022-10-16T01:10:29;13.40;90.90
17066;DHT22;23120;52.336;21.182;2022-10-16T01:13:00;13.40;90.80
17066;DHT22;23120;52.336;21.182;2022-10-16T01:15:31;13.40;91.00
17066;DHT22;23120;52.336;21.182;2022-10-16T01:18:01;13.30;91.20
17066;DHT22;23120;52.336;21.182;2022-10-16T01:20:35;13.40;91.20
17066;DHT22;23120;52.336;21.182;2022-10-16T01:23:10;13.30;91.50
17066;DHT22;23120;52.336;21.182;2022-10-16T01:25:53;13.30;91.40
17066;DHT22;23120;52.336;21.182;2022-10-16T01:28:29;13.30;91.40
17066;DHT22;23120;52.336;21.182;2022-10-16T01:31:01;13.40;91.80
17066;DHT22;23120;52.336;21.182;2022-10-16T01:33:34;13.30;91.60
17066;DHT22;23120;52.336;21.182;2022-10-16T01:36:07;13.30;91.60
17066;DHT22;23120;52.336;21.182;2022-10-16T01:38:38;13.30;91.70
17066;DHT22;23120;52.336;21.182;2022-10-16T01:41:09;13.30;91.80
17066;DHT22;23120;52.336;21.182;2022-10-16T01:43:41;13.30;91.80
17066;DHT22;23120;52.336;21.182;2022-10-16T01:46:10;13.30;91.70
17066;DHT22;23120;52.336;21.182;2022-10-16T01:48:39;13.30;91.80
17066;DHT22;23120;52.336;21.182;2022-10-16T01:51:09;13.30;92.00
17066;DHT22;23120;52.336;21.182;2022-10-16T01:53:37;13.30;91.70
17066;DHT22;23120;52.336;21.182;2022-10-16T01:56:08;13.30;91.90
17066;DHT22;23120;52.336;21.182;2022-10-16T01:58:42;13.30;91.90
17066;DHT22;23120;52.336;21.182;2022-10-16T02:01:13;13.30;91.70
17066;DHT22;23120;52.336;21.182;2022-10-16T02:03:42;13.30;91.90
17066;DHT22;23120;52.336;21.182;2022-10-16T02:06:11;13.30;91.70
17066;DHT22;23120;52.336;21.182;2022-10-16T02:08:38;13.30;92.20
17066;DHT22;23120;52.336;21.182;2022-10-16T02:11:09;13.30;91.70
17066;DHT22;23120;52.336;21.182;2022-10-16T02:13:41;13.20;91.80
17066;DHT22;23120;52.336;21.182;2022-10-16T02:16:11;13.20;91.90
17066;DHT22;23120;52.336;21.182;2022-10-16T02:18:39;13.20;91.90
17066;DHT22;23120;52.336;21.182;2022-10-16T02:21:12;13.20;92.30
17066;DHT22;23120;52.336;21.182;2022-10-16T02:23:45;13.20;92.40
17066;DHT22;23120;52.336;21.182;2022-10-16T02:26:15;13.20;92.30
17066;DHT22;23120;52.336;21.182;2022-10-16T02:28:50;13.10;92.60
17066;DHT22;23120;52.336;21.182;2022-10-16T02:31:24;13.20;92.60
17066;DHT22;23120;52.336;21.182;2022-10-16T02:33:55;13.20;92.50
17066;DHT22;23120;52.336;21.182;2022-10-16T02:36:25;13.10;92.40
17066;DHT22;23120;52.336;21.182;2022-10-16T02:38:52;13.10;92.70
17066;DHT22;23120;52.336;21.182;2022-10-16T02:41:21;13.10;92.50
17066;DHT22;23120;52.336;21.182;2022-10-16T02:43:49;13.10;92.50
17066;DHT22;23120;52.336;21.182;2022-10-16T02:46:17;13.10;92.30
17066;DHT22;23120;52.336;21.182;2022-10-16T02:48:44;13.10;92.40
17066;DHT22;23120;52.336;21.182;2022-10-16T02:51:10;13.10;92.50
17066;DHT22;23120;52.336;21.182;2022-10-16T02:53:37;13.10;92.60
17066;DHT22;23120;52.336;21.182;2022-10-16T02:56:04;13.10;92.50
17066;DHT22;23120;52.336;21.182;2022-10-16T02:58:31;13.10;92.30
17066;DHT22;23120;52.336;21.182;2022-10-16T03:01:00;13.10;92.20
17066;DHT22;23120;52.336;21.182;2022-10-16T03:03:27;13.10;92.30
17066;DHT22;23120;52.336;21.182;2022-10-16T03:05:54;13.00;92.20
17066;DHT22;23120;52.336;21.182;2022-10-16T03:08:21;13.00;92.40
17066;DHT22;23120;52.336;21.182;2022-10-16T03:10:51;13.00;92.30
17066;DHT22;23120;52.336;21.182;2022-10-16T03:13:18;13.00;92.50
17066;DHT22;23120;52.336;21.182;2022-10-16T03:15:45;13.00;92.40
17066;DHT22;23120;52.336;21.182;2022-10-16T03:18:14;13.00;92.50
17066;DHT22;23120;52.336;21.182;2022-10-16T03:20:42;13.00;92.60
17066;DHT22;23120;52.336;21.182;2022-10-16T03:23:09;13.00;92.60
17066;DHT22;23120;52.336;21.182;2022-10-16T03:25:36;13.00;92.40
17066;DHT22;23120;52.336;21.182;2022-10-16T03:28:03;12.90;92.40
17066;DHT22;23120;52.336;21.182;2022-10-16T03:30:30;13.00;92.50
17066;DHT22;23120;52.336;21.182;2022-10-16T03:32:57;13.00;92.50
17066;DHT22;23120;52.336;21.182;2022-10-16T03:35:25;13.00;92.50
17066;DHT22;23120;52.336;21.182;2022-10-16T03:37:52;12.90;92.50
17066;DHT22;23120;52.336;21.182;2022-10-16T03:40:20;12.90;92.50
17066;DHT22;23120;52.336;21.182;2022-10-16T03:42:48;12.90;92.20
17066;DHT22;23120;52.336;21.182;2022-10-16T03:45:15;13.00;92.60
17066;DHT22;23120;52.336;21.182;2022-10-16T03:47:41;12.90;92.50
17066;DHT22;23120;52.336;21.182;2022-10-16T03:50:08;12.90;92.50
17066;DHT22;23120;52.336;21.182;2022-10-16T03:52:37;12.90;92.50
17066;DHT22;23120;52.336;21.182;2022-10-16T03:55:04;12.90;92.50
17066;DHT22;23120;52.336;21.182;2022-10-16T03:57:31;12.90;92.50
17066;DHT22;23120;52.336;21.182;2022-10-16T03:59:58;12.90;92.50
17066;DHT22;23120;52.336;21.182;2022-10-16T04:02:25;12.90;92.50
17066;DHT22;23120;52.336;21.182;2022-10-16T04:04:52;12.90;92.40
17066;DHT22;23120;52.336;21.182;2022-10-16T04:07:19;12.90;92.30
17066;DHT22;23120;52.336;21.182;2022-10-16T04:09:47;12.90;92.50
17066;DHT22;23120;52.336;21.182;2022-10-16T04:12:14;12.90;92.30
17066;DHT22;23120;52.336;21.182;2022-10-16T04:14:41;12.90;92.40
17066;DHT22;23120;52.336;21.182;2022-10-16T04:17:08;12.90;92.40
17066;DHT22;23120;52.336;21.182;2022-10-16T04:19:35;12.90;92.70
17066;DHT22;23120;52.336;21.182;2022-10-16T04:22:02;12.80;92.50
17066;DHT22;23120;52.336;21.182;2022-10-16T04:24:29;12.80;92.50
17066;DHT22;23120;52.336;21.182;2022-10-16T04:26:57;12.80;92.50
17066;DHT22;23120;52.336;21.182;2022-10-16T04:29:24;12.90;92.40
17066;DHT22;23120;52.336;21.182;2022-10-16T04:31:51;12.80;92.30
17066;DHT22;23120;52.336;21.182;2022-10-16T04:34:18;12.80;92.20
17066;DHT22;23120;52.336;21.182;2022-10-16T04:36:47;12.80;92.10
17066;DHT22;23120;52.336;21.182;2022-10-16T04:39:14;12.80;92.00
17066;DHT22;23120;52.336;21.182;2022-10-16T04:41:41;12.80;92.10
17066;DHT22;23120;52.336;21.182;2022-10-16T04:44:10;12.70;92.00
17066;DHT22;23120;52.336;21.182;2022-10-16T04:46:37;12.70;92.40
17066;DHT22;23120;52.336;21.182;2022-10-16T04:49:03;12.60;92.30
17066;DHT22;23120;52.336;21.182;2022-10-16T04:51:31;12.60;91.90
17066;DHT22;23120;52.336;21.182;2022-10-16T04:53:57;12.60;91.90
17066;DHT22;23120;52.336;21.182;2022-10-16T04:56:24;12.50;92.00
17066;DHT22;23120;52.336;21.182;2022-10-16T04:58:51;12.50;91.90
17066;DHT22;23120;52.336;21.182;2022-10-16T05:01:21;12.50;91.90
17066;DHT22;23120;52.336;21.182;2022-10-16T05:03:48;12.50;91.90
17066;DHT22;23120;52.336;21.182;2022-10-16T05:06:15;12.40;91.80
17066;DHT22;23120;52.336;21.182;2022-10-16T05:08:42;12.40;92.00
17066;DHT22;23120;52.336;21.182;2022-10-16T05:11:09;12.30;91.90
17066;DHT22;23120;52.336;21.182;2022-10-16T05:13:36;12.30;91.80
17066;DHT22;23120;52.336;21.182;2022-10-16T05:16:03;12.30;92.10
17066;DHT22;23120;52.336;21.182;2022-10-16T05:18:31;12.30;91.90
17066;DHT22;23120;52.336;21.182;2022-10-16T05:20:58;12.30;92.10
17066;DHT22;23120;52.336;21.182;2022-10-16T05:23:25;12.20;92.10
17066;DHT22;23120;52.336;21.182;2022-10-16T05:25:53;12.20;92.10
17066;DHT22;23120;52.336;21.182;2022-10-16T05:28:21;12.20;92.00
17066;DHT22;23120;52.336;21.182;2022-10-16T05:30:48;12.20;92.30
17066;DHT22;23120;52.336;21.182;2022-10-16T05:33:15;12.20;92.30
17066;DHT22;23120;52.336;21.182;2022-10-16T05:35:43;12.20;92.20
17066;DHT22;23120;52.336;21.182;2022-10-16T05:38:10;12.20;92.10
17066;DHT22;23120;52.336;21.182;2022-10-16T05:40:37;12.30;92.30
17066;DHT22;23120;52.336;21.182;2022-10-16T05:43:04;12.30;92.50
17066;DHT22;23120;52.336;21.182;2022-10-16T05:45:31;12.30;92.40
17066;DHT22;23120;52.336;21.182;2022-10-16T05:47:58;12.30;92.50
17066;DHT22;23120;52.336;21.182;2022-10-16T05:50:25;12.30;92.60
17066;DHT22;23120;52.336;21.182;2022-10-16T05:52:54;12.40;92.40
17066;DHT22;23120;52.336;21.182;2022-10-16T05:55:20;12.40;92.60
17066;DHT22;23120;52.336;21.182;2022-10-16T05:57:48;12.40;92.70
17066;DHT22;23120;52.336;21.182;2022-10-16T06:00:15;12.40;92.40
17066;DHT22;23120;52.336;21.182;2022-10-16T06:02:42;12.40;92.40
17066;DHT22;23120;52.336;21.182;2022-10-16T06:05:08;12.40;92.40
17066;DHT22;23120;52.336;21.182;2022-10-16T06:07:36;12.40;92.40
17066;DHT22;23120;52.336;21.182;2022-10-16T06:10:05;12.40;92.30
17066;DHT22;23120;52.336;21.182;2022-10-16T06:12:32;12.40;92.40
17066;DHT22;23120;52.336;21.182;2022-10-16T06:14:59;12.40;92.40
17066;DHT22;23120;52.336;21.182;2022-10-16T06:17:26;12.40;92.30
17066;DHT22;23120;52.336;21.182;2022-10-16T06:19:53;12.40;92.40
17066;DHT22;23120;52.336;21.182;2022-10-16T06:22:20;12.40;92.20
17066;DHT22;23120;52.336;21.182;2022-10-16T06:24:47;12.30;92.30
17066;DHT22;23120;52.336;21.182;2022-10-16T06:27:16;12.40;92.50
17066;DHT22;23120;52.336;21.182;2022-10-16T06:29:43;12.30;92.40
17066;DHT22;23120;52.336;21.182;2022-10-16T06:32:10;12.40;92.50
17066;DHT22;23120;52.336;21.182;2022-10-16T06:34:37;12.40;92.50
17066;DHT22;23120;52.336;21.182;2022-10-16T06:37:05;12.40;92.30
17066;DHT22;23120;52.336;21.182;2022-10-16T06:39:32;12.40;92.20
17066;DHT22;23120;52.336;21.182;2022-10-16T06:41:59;12.50;92.30
17066;DHT22;23120;52.336;21.182;2022-10-16T06:44:35;12.50;92.30
17066;DHT22;23120;52.336;21.182;2022-10-16T06:47:01;12.50;92.50
17066;DHT22;23120;52.336;21.182;2022-10-16T06:49:28;12.50;92.30
17066;DHT22;23120;52.336;21.182;2022-10-16T06:51:55;12.50;92.30
17066;DHT22;23120;52.336;21.182;2022-10-16T06:54:22;12.60;92.20
17066;DHT22;23120;52.336;21.182;2022-10-16T06:56:51;12.60;92.50
17066;DHT22;23120;52.336;21.182;2022-10-16T06:59:19;12.60;92.30
17066;DHT22;23120;52.336;21.182;2022-10-16T07:01:48;12.70;92.20
17066;DHT22;23120;52.336;21.182;2022-10-16T07:04:15;12.70;92.20
17066;DHT22;23120;52.336;21.182;2022-10-16T07:06:42;12.70;92.20
17066;DHT22;23120;52.336;21.182;2022-10-16T07:09:12;12.70;92.10
17066;DHT22;23120;52.336;21.182;2022-10-16T07:11:39;12.80;92.10
17066;DHT22;23120;52.336;21.182;2022-10-16T07:14:15;12.80;92.10
17066;DHT22;23120;52.336;21.182;2022-10-16T07:16:42;12.90;92.30
17066;DHT22;23120;52.336;21.182;2022-10-16T07:19:26;13.00;92.10
17066;DHT22;23120;52.336;21.182;2022-10-16T07:21:56;13.00;92.00
17066;DHT22;23120;52.336;21.182;2022-10-16T07:24:32;13.10;92.30
17066;DHT22;23120;52.336;21.182;2022-10-16T07:27:00;13.20;92.10
17066;DHT22;23120;52.336;21.182;2022-10-16T07:29:27;13.30;92.10
17066;DHT22;23120;52.336;21.182;2022-10-16T07:31:53;13.30;92.00
17066;DHT22;23120;52.336;21.182;2022-10-16T07:34:21;13.40;92.00
17066;DHT22;23120;52.336;21.182;2022-10-16T07:36:50;13.50;91.90
17066;DHT22;23120;52.336;21.182;2022-10-16T07:39:17;13.50;91.80
17066;DHT22;23120;52.336;21.182;2022-10-16T07:41:44;13.50;91.80
17066;DHT22;23120;52.336;21.182;2022-10-16T07:44:10;13.60;91.80
17066;DHT22;23120;52.336;21.182;2022-10-16T07:46:37;13.60;91.70
17066;DHT22;23120;52.336;21.182;2022-10-16T07:49:04;13.70;91.70
17066;DHT22;23120;52.336;21.182;2022-10-16T07:51:31;13.70;91.70
17066;DHT22;23120;52.336;21.182;2022-10-16T07:53:59;13.80;91.70
17066;DHT22;23120;52.336;21.182;2022-10-16T07:56:27;13.90;91.80
17066;DHT22;23120;52.336;21.182;2022-10-16T07:58:54;14.00;91.80
17066;DHT22;23120;52.336;21.182;2022-10-16T08:01:22;14.10;91.80
17066;DHT22;23120;52.336;21.182;2022-10-16T08:03:50;14.10;91.80
17066;DHT22;23120;52.336;21.182;2022-10-16T08:06:17;14.30;91.70
17066;DHT22;23120;52.336;21.182;2022-10-16T08:08:45;14.30;91.70
17066;DHT22;23120;52.336;21.182;2022-10-16T08:11:14;14.40;91.50
17066;DHT22;23120;52.336;21.182;2022-10-16T08:13:41;14.50;91.50
17066;DHT22;23120;52.336;21.182;2022-10-16T08:16:08;14.60;91.40
17066;DHT22;23120;52.336;21.182;2022-10-16T08:18:37;14.60;91.30
17066;DHT22;23120;52.336;21.182;2022-10-16T08:21:05;14.70;91.40
17066;DHT22;23120;52.336;21.182;2022-10-16T08:23:33;14.70;91.20
17066;DHT22;23120;52.336;21.182;2022-10-16T08:26:04;14.80;91.10
17066;DHT22;23120;52.336;21.182;2022-10-16T08:28:33;14.90;91.20
17066;DHT22;23120;52.336;21.182;2022-10-16T08:31:08;15.00;91.20
17066;DHT22;23120;52.336;21.182;2022-10-16T08:33:35;15.00;91.00
17066;DHT22;23120;52.336;21.182;2022-10-16T08:36:03;15.10;91.00
17066;DHT22;23120;52.336;21.182;2022-10-16T08:38:30;15.20;91.10
17066;DHT22;23120;52.336;21.182;2022-10-16T08:41:15;15.20;90.90
17066;DHT22;23120;52.336;21.182;2022-10-16T08:44:00;15.30;90.80
17066;DHT22;23120;52.336;21.182;2022-10-16T08:46:38;15.40;90.80
17066;DHT22;23120;52.336;21.182;2022-10-16T08:49:10;15.50;90.80
17066;DHT22;23120;52.336;21.182;2022-10-16T08:51:38;15.60;90.80
17066;DHT22;23120;52.336;21.182;2022-10-16T08:54:09;15.60;90.80
17066;DHT22;23120;52.336;21.182;2022-10-16T08:56:40;15.70;90.90
17066;DHT22;23120;52.336;21.182;2022-10-16T08:59:12;15.80;90.70
17066;DHT22;23120;52.336;21.182;2022-10-16T09:01:45;15.90;90.80
17066;DHT22;23120;52.336;21.182;2022-10-16T09:04:46;15.90;90.70
17066;DHT22;23120;52.336;21.182;2022-10-16T09:07:24;16.10;90.60
17066;DHT22;23120;52.336;21.182;2022-10-16T09:10:11;16.20;90.70
17066;DHT22;23120;52.336;21.182;2022-10-16T09:12:48;16.20;90.70
17066;DHT22;23120;52.336;21.182;2022-10-16T09:15:27;16.30;90.50
17066;DHT22;23120;52.336;21.182;2022-10-16T09:18:00;16.40;90.60
17066;DHT22;23120;52.336;21.182;2022-10-16T09:20:33;16.50;90.30
17066;DHT22;23120;52.336;21.182;2022-10-16T09:23:15;16.60;90.40
17066;DHT22;23120;52.336;21.182;2022-10-16T09:25:45;16.80;90.30
17066;DHT22;23120;52.336;21.182;2022-10-16T09:28:13;16.90;90.30
17066;DHT22;23120;52.336;21.182;2022-10-16T09:30:41;17.00;90.00
17066;DHT22;23120;52.336;21.182;2022-10-16T09:33:10;17.20;90.10
17066;DHT22;23120;52.336;21.182;2022-10-16T09:35:39;17.30;90.20
17066;DHT22;23120;52.336;21.182;2022-10-16T09:38:07;17.40;90.00
17066;DHT22;23120;52.336;21.182;2022-10-16T09:40:36;17.50;89.40
17066;DHT22;23120;52.336;21.182;2022-10-16T09:43:12;17.60;89.50
17066;DHT22;23120;52.336;21.182;2022-10-16T09:45:53;17.70;89.20
17066;DHT22;23120;52.336;21.182;2022-10-16T09:48:21;17.80;88.90
17066;DHT22;23120;52.336;21.182;2022-10-16T09:50:56;17.80;88.60
17066;DHT22;23120;52.336;21.182;2022-10-16T09:53:23;17.90;88.70
17066;DHT22;23120;52.336;21.182;2022-10-16T09:55:51;17.90;88.10
17066;DHT22;23120;52.336;21.182;2022-10-16T09:58:20;18.00;88.40
17066;DHT22;23120;52.336;21.182;2022-10-16T10:00:53;18.10;88.50
17066;DHT22;23120;52.336;21.182;2022-10-16T10:03:41;18.10;88.30
17066;DHT22;23120;52.336;21.182;2022-10-16T10:06:30;18.10;87.60
17066;DHT22;23120;52.336;21.182;2022-10-16T10:09:02;18.10;87.20
17066;DHT22;23120;52.336;21.182;2022-10-16T10:11:40;18.20;87.30
17066;DHT22;23120;52.336;21.182;2022-10-16T10:14:17;18.20;87.30
17066;DHT22;23120;52.336;21.182;2022-10-16T10:16:45;18.30;86.60
17066;DHT22;23120;52.336;21.182;2022-10-16T10:19:15;18.30;86.60
17066;DHT22;23120;52.336;21.182;2022-10-16T10:21:42;18.30;86.40
17066;DHT22;23120;52.336;21.182;2022-10-16T10:24:11;18.40;87.00
17066;DHT22;23120;52.336;21.182;2022-10-16T10:26:39;18.40;87.20
17066;DHT22;23120;52.336;21.182;2022-10-16T10:29:18;18.40;87.30
17066;DHT22;23120;52.336;21.182;2022-10-16T10:31:55;18.50;87.60
17066;DHT22;23120;52.336;21.182;2022-10-16T10:34:39;18.50;87.60
17066;DHT22;23120;52.336;21.182;2022-10-16T10:37:24;18.60;87.70
17066;DHT22;23120;52.336;21.182;2022-10-16T10:40:01;18.60;87.70
17066;DHT22;23120;52.336;21.182;2022-10-16T10:42:34;18.70;87.40
17066;DHT22;23120;52.336;21.182;2022-10-16T10:45:17;18.70;87.50
17066;DHT22;23120;52.336;21.182;2022-10-16T10:48:05;18.80;86.20
17066;DHT22;23120;52.336;21.182;2022-10-16T10:50:41;18.80;86.90
17066;DHT22;23120;52.336;21.182;2022-10-16T10:53:21;18.90;86.70
17066;DHT22;23120;52.336;21.182;2022-10-16T10:55:52;18.90;87.00
17066;DHT22;23120;52.336;21.182;2022-10-16T10:58:49;18.90;86.50
17066;DHT22;23120;52.336;21.182;2022-10-16T11:01:26;18.90;86.20
17066;DHT22;23120;52.336;21.182;2022-10-16T11:04:20;19.00;86.60
17066;DHT22;23120;52.336;21.182;2022-10-16T11:06:55;19.00;86.40
17066;DHT22;23120;52.336;21.182;2022-10-16T11:09:25;19.00;86.30
17066;DHT22;23120;52.336;21.182;2022-10-16T11:11:58;19.10;86.40
17066;DHT22;23120;52.336;21.182;2022-10-16T11:14:30;19.20;85.60
17066;DHT22;23120;52.336;21.182;2022-10-16T11:17:04;19.20;84.70
17066;DHT22;23120;52.336;21.182;2022-10-16T11:19:39;19.30;85.00
17066;DHT22;23120;52.336;21.182;2022-10-16T11:22:11;19.30;84.90
17066;DHT22;23120;52.336;21.182;2022-10-16T11:24:45;19.40;85.30
17066;DHT22;23120;52.336;21.182;2022-10-16T11:27:17;19.40;85.60
17066;DHT22;23120;52.336;21.182;2022-10-16T11:29:49;19.50;85.40
17066;DHT22;23120;52.336;21.182;2022-10-16T11:32:22;19.60;85.40
17066;DHT22;23120;52.336;21.182;2022-10-16T11:34:55;19.60;84.80
17066;DHT22;23120;52.336;21.182;2022-10-16T11:37:27;19.70;84.60
17066;DHT22;23120;52.336;21.182;2022-10-16T11:40:03;19.70;83.40
17066;DHT22;23120;52.336;21.182;2022-10-16T11:42:36;19.80;84.30
17066;DHT22;23120;52.336;21.182;2022-10-16T11:45:15;19.80;84.40
17066;DHT22;23120;52.336;21.182;2022-10-16T11:47:54;19.90;83.60
17066;DHT22;23120;52.336;21.182;2022-10-16T11:50:32;19.90;83.60
17066;DHT22;23120;52.336;21.182;2022-10-16T11:53:04;19.90;83.30
17066;DHT22;23120;52.336;21.182;2022-10-16T11:55:37;19.90;82.90
17066;DHT22;23120;52.336;21.182;2022-10-16T11:58:08;20.00;83.20
17066;DHT22;23120;52.336;21.182;2022-10-16T12:00:42;20.00;82.80
17066;DHT22;23120;52.336;21.182;2022-10-16T12:03:17;20.00;82.10
17066;DHT22;23120;52.336;21.182;2022-10-16T12:06:11;20.10;82.20
17066;DHT22;23120;52.336;21.182;2022-10-16T12:08:40;20.10;83.60
17066;DHT22;23120;52.336;21.182;2022-10-16T12:11:20;20.10;82.60
17066;DHT22;23120;52.336;21.182;2022-10-16T12:13:48;20.10;82.60
17066;DHT22;23120;52.336;21.182;2022-10-16T12:16:23;20.10;81.50
17066;DHT22;23120;52.336;21.182;2022-10-16T12:19:07;20.20;78.90
17066;DHT22;23120;52.336;21.182;2022-10-16T12:21:37;20.30;81.30
17066;DHT22;23120;52.336;21.182;2022-10-16T12:24:05;20.20;80.40
17066;DHT22;23120;52.336;21.182;2022-10-16T12:26:33;20.30;81.60
17066;DHT22;23120;52.336;21.182;2022-10-16T12:29:15;20.30;80.10
17066;DHT22;23120;52.336;21.182;2022-10-16T12:31:47;20.40;78.40
17066;DHT22;23120;52.336;21.182;2022-10-16T12:34:22;20.30;79.50
17066;DHT22;23120;52.336;21.182;2022-10-16T12:36:52;20.40;80.30
17066;DHT22;23120;52.336;21.182;2022-10-16T12:39:22;20.50;80.60
17066;DHT22;23120;52.336;21.182;2022-10-16T12:42:01;20.50;80.60
17066;DHT22;23120;52.336;21.182;2022-10-16T12:44:32;20.60;79.70
17066;DHT22;23120;52.336;21.182;2022-10-16T12:47:01;20.70;80.30
17066;DHT22;23120;52.336;21.182;2022-10-16T12:49:34;20.70;78.40
17066;DHT22;23120;52.336;21.182;2022-10-16T12:52:03;20.70;78.70
17066;DHT22;23120;52.336;21.182;2022-10-16T12:54:36;20.80;77.60
17066;DHT22;23120;52.336;21.182;2022-10-16T12:57:20;20.70;77.30
17066;DHT22;23120;52.336;21.182;2022-10-16T12:59:59;20.80;78.20
17066;DHT22;23120;52.336;21.182;2022-10-16T13:02:44;20.80;77.20
17066;DHT22;23120;52.336;21.182;2022-10-16T13:05:32;20.80;78.50
17066;DHT22;23120;52.336;21.182;2022-10-16T13:08:16;20.70;77.90
17066;DHT22;23120;52.336;21.182;2022-10-16T13:10:54;20.70;78.10
17066;DHT22;23120;52.336;21.182;2022-10-16T13:13:35;20.70;77.40
17066;DHT22;23120;52.336;21.182;2022-10-16T13:16:13;20.70;77.90
17066;DHT22;23120;52.336;21.182;2022-10-16T13:18:51;20.70;77.90
17066;DHT22;23120;52.336;21.182;2022-10-16T13:21:37;20.70;79.10
17066;DHT22;23120;52.336;21.182;2022-10-16T13:24:20;20.80;77.60
17066;DHT22;23120;52.336;21.182;2022-10-16T13:26:54;20.70;78.30
17066;DHT22;23120;52.336;21.182;2022-10-16T13:29:23;20.70;77.80
17066;DHT22;23120;52.336;21.182;2022-10-16T13:31:50;20.70;78.50
17066;DHT22;23120;52.336;21.182;2022-10-16T13:34:19;20.70;78.40
17066;DHT22;23120;52.336;21.182;2022-10-16T13:36:49;20.70;79.30
17066;DHT22;23120;52.336;21.182;2022-10-16T13:39:26;20.60;79.50
17066;DHT22;23120;52.336;21.182;2022-10-16T13:42:03;20.60;80.00
17066;DHT22;23120;52.336;21.182;2022-10-16T13:44:36;20.60;79.10
17066;DHT22;23120;52.336;21.182;2022-10-16T13:47:04;20.50;79.80
17066;DHT22;23120;52.336;21.182;2022-10-16T13:49:30;20.50;79.90
17066;DHT22;23120;52.336;21.182;2022-10-16T13:51:58;20.40;79.50
17066;DHT22;23120;52.336;21.182;2022-10-16T13:54:28;20.40;80.10
17066;DHT22;23120;52.336;21.182;2022-10-16T13:56:55;20.30;79.80
17066;DHT22;23120;52.336;21.182;2022-10-16T13:59:24;20.20;80.00
17066;DHT22;23120;52.336;21.182;2022-10-16T14:01:55;20.20;80.30
17066;DHT22;23120;52.336;21.182;2022-10-16T14:04:23;20.20;80.20
17066;DHT22;23120;52.336;21.182;2022-10-16T14:06:51;20.10;80.20
17066;DHT22;23120;52.336;21.182;2022-10-16T14:09:23;20.10;80.90
17066;DHT22;23120;52.336;21.182;2022-10-16T14:11:55;20.00;81.10
17066;DHT22;23120;52.336;21.182;2022-10-16T14:14:23;20.00;81.00
17066;DHT22;23120;52.336;21.182;2022-10-16T14:16:50;19.90;80.60
17066;DHT22;23120;52.336;21.182;2022-10-16T14:19:21;19.90;80.00
17066;DHT22;23120;52.336;21.182;2022-10-16T14:21:49;19.80;80.20
17066;DHT22;23120;52.336;21.182;2022-10-16T14:24:25;19.80;80.60
17066;DHT22;23120;52.336;21.182;2022-10-16T14:26:54;19.70;80.40
17066;DHT22;23120;52.336;21.182;2022-10-16T14:29:23;19.70;80.50
17066;DHT22;23120;52.336;21.182;2022-10-16T14:31:57;19.60;80.10
17066;DHT22;23120;52.336;21.182;2022-10-16T14:34:26;19.60;80.60
17066;DHT22;23120;52.336;21.182;2022-10-16T14:36:54;19.60;80.60
17066;DHT22;23120;52.336;21.182;2022-10-16T14:39:22;19.50;80.60
17066;DHT22;23120;52.336;21.182;2022-10-16T14:41:50;19.40;80.60
17066;DHT22;23120;52.336;21.182;2022-10-16T14:44:22;19.40;80.80
17066;DHT22;23120;52.336;21.182;2022-10-16T14:46:50;19.40;80.80
17066;DHT22;23120;52.336;21.182;2022-10-16T14:49:19;19.30;81.10
17066;DHT22;23120;52.336;21.182;2022-10-16T14:51:47;19.30;81.20
17066;DHT22;23120;52.336;21.182;2022-10-16T14:54:15;19.30;81.20
17066;DHT22;23120;52.336;21.182;2022-10-16T14:56:46;19.30;81.30
17066;DHT22;23120;52.336;21.182;2022-10-16T14:59:16;19.30;81.50
17066;DHT22;23120;52.336;21.182;2022-10-16T15:01:45;19.20;81.50
17066;DHT22;23120;52.336;21.182;2022-10-16T15:04:13;19.20;81.60
17066;DHT22;23120;52.336;21.182;2022-10-16T15:06:41;19.20;81.80
17066;DHT22;23120;52.336;21.182;2022-10-16T15:09:08;19.10;81.80
17066;DHT22;23120;52.336;21.182;2022-10-16T15:11:35;19.20;82.10
17066;DHT22;23120;52.336;21.182;2022-10-16T15:14:02;19.10;82.20
17066;DHT22;23120;52.336;21.182;2022-10-16T15:16:30;19.10;82.30
17066;DHT22;23120;52.336;21.182;2022-10-16T15:18:58;19.00;82.60
17066;DHT22;23120;52.336;21.182;2022-10-16T15:21:27;19.10;82.80
17066;DHT22;23120;52.336;21.182;2022-10-16T15:23:54;19.00;82.70
17066;DHT22;23120;52.336;21.182;2022-10-16T15:26:22;18.90;82.60
17066;DHT22;23120;52.336;21.182;2022-10-16T15:28:49;18.90;82.60
17066;DHT22;23120;52.336;21.182;2022-10-16T15:31:16;18.90;82.70
17066;DHT22;23120;52.336;21.182;2022-10-16T15:33:44;18.80;83.30
17066;DHT22;23120;52.336;21.182;2022-10-16T15:36:24;18.80;83.60